sensor_id;sensor_type;location;lat;lon;timestamp;P1;durP1;ratioP1;P2;durP2;ratioP2
51475;SDS011;37554;50.362;7.568;2023-12-20T00:02:19;0.20;;;0.20;;
51475;SDS011;37554;50.362;7.568;2023-12-20T00:04:45;0.10;;;0.10;;
51475;SDS011;37554;50.362;7.568;2023-12-20T00:07:28;0.43;;;0.20;;
51475;SDS011;37554;50.362;7.568;2023-12-20T00:09:54;0.20;;;0.20;;
51475;SDS011;37554;50.362;7.568;2023-12-20T00:12:22;0.20;;;0.20;;
51475;SDS011;37554;50.362;7.568;2023-12-20T00:14:53;0.30;;;0.30;;
51475;SDS011;37554;50.362;7.568;2023-12-20T00:17:18;0.45;;;0.25;;
51475;SDS011;37554;50.362;7.568;2023-12-20T00:19:45;0.20;;;0.20;;
51475;SDS011;37554;50.362;7.568;2023-12-20T00:22:10;0.20;;;0.20;;
51475;SDS011;37554;50.362;7.568;2023-12-20T00:24:36;0.20;;;0.20;;
51475;SDS011;37554;50.362;7.568;2023-12-20T00:27:01;0.60;;;0.22;;
51475;SDS011;37554;50.362;7.568;2023-12-20T00:29:27;0.20;;;0.15;;
51475;SDS011;37554;50.362;7.568;2023-12-20T00:31:53;0.20;;;0.20;;
51475;SDS011;37554;50.362;7.568;2023-12-20T00:34:18;0.20;;;0.20;;
51475;SDS011;37554;50.362;7.568;2023-12-20T00:36:44;0.68;;;0.17;;
51475;SDS011;37554;50.362;7.568;2023-12-20T00:39:09;0.40;;;0.20;;
51475;SDS011;37554;50.362;7.568;2023-12-20T00:41:35;0.35;;;0.20;;
51475;SDS011;37554;50.362;7.568;2023-12-20T00:44:00;0.20;;;0.20;;
51475;SDS011;37554;50.362;7.568;2023-12-20T00:46:26;0.20;;;0.17;;
51475;SDS011;37554;50.362;7.568;2023-12-20T00:48:52;0.30;;;0.20;;
51475;SDS011;37554;50.362;7.568;2023-12-20T00:51:17;0.55;;;0.30;;
51475;SDS011;37554;50.362;7.568;2023-12-20T00:53:43;0.40;;;0.28;;
51475;SDS011;37554;50.362;7.568;2023-12-20T00:56:08;0.20;;;0.20;;
51475;SDS011;37554;50.362;7.568;2023-12-20T00:58:37;0.20;;;0.20;;
51475;SDS011;37554;50.362;7.568;2023-12-20T01:01:03;0.30;;;0.20;;
51475;SDS011;37554;50.362;7.568;2023-12-20T01:03:28;0.20;;;0.20;;
51475;SDS011;37554;50.362;7.568;2023-12-20T01:05:54;0.85;;;0.20;;
51475;SDS011;37554;50.362;7.568;2023-12-20T01:08:20;0.20;;;0.20;;
51475;SDS011;37554;50.362;7.568;2023-12-20T01:10:45;0.20;;;0.20;;
51475;SDS011;37554;50.362;7.568;2023-12-20T01:13:11;0.28;;;0.20;;
51475;SDS011;37554;50.362;7.568;2023-12-20T01:15:37;0.30;;;0.20;;
51475;SDS011;37554;50.362;7.568;2023-12-20T01:18:03;0.52;;;0.28;;
51475;SDS011;37554;50.362;7.568;2023-12-20T01:20:28;0.35;;;0.30;;
51475;SDS011;37554;50.362;7.568;2023-12-20T01:22:54;0.70;;;0.10;;
51475;SDS011;37554;50.362;7.568;2023-12-20T01:25:20;0.15;;;0.15;;
51475;SDS011;37554;50.362;7.568;2023-12-20T01:27:45;0.52;;;0.20;;
51475;SDS011;37554;50.362;7.568;2023-12-20T01:30:11;0.20;;;0.20;;
51475;SDS011;37554;50.362;7.568;2023-12-20T01:32:36;0.20;;;0.20;;
51475;SDS011;37554;50.362;7.568;2023-12-20T01:35:02;0.20;;;0.20;;
51475;SDS011;37554;50.362;7.568;2023-12-20T01:37:28;0.77;;;0.30;;
51475;SDS011;37554;50.362;7.568;2023-12-20T01:39:54;0.45;;;0.30;;
51475;SDS011;37554;50.362;7.568;2023-12-20T01:42:20;0.30;;;0.22;;
51475;SDS011;37554;50.362;7.568;2023-12-20T01:44:45;0.32;;;0.10;;
51475;SDS011;37554;50.362;7.568;2023-12-20T01:47:12;0.38;;;0.30;;
51475;SDS011;37554;50.362;7.568;2023-12-20T01:49:39;0.25;;;0.20;;
51475;SDS011;37554;50.362;7.568;2023-12-20T01:52:04;0.30;;;0.30;;
51475;SDS011;37554;50.362;7.568;2023-12-20T01:54:31;0.20;;;0.20;;
51475;SDS011;37554;50.362;7.568;2023-12-20T01:56:56;0.20;;;0.20;;
51475;SDS011;37554;50.362;7.568;2023-12-20T01:59:22;1.60;;;0.20;;
51475;SDS011;37554;50.362;7.568;2023-12-20T02:01:48;0.28;;;0.20;;
51475;SDS011;37554;50.362;7.568;2023-12-20T02:04:14;0.63;;;0.10;;
51475;SDS011;37554;50.362;7.568;2023-12-20T02:06:40;0.20;;;0.20;;
51475;SDS011;37554;50.362;7.568;2023-12-20T02:09:07;0.20;;;0.20;;
51475;SDS011;37554;50.362;7.568;2023-12-20T02:11:33;0.32;;;0.20;;
51475;SDS011;37554;50.362;7.568;2023-12-20T02:14:02;0.55;;;0.20;;
51475;SDS011;37554;50.362;7.568;2023-12-20T02:16:30;0.20;;;0.20;;
51475;SDS011;37554;50.362;7.568;2023-12-20T02:18:55;0.20;;;0.20;;
51475;SDS011;37554;50.362;7.568;2023-12-20T02:21:25;0.30;;;0.20;;
51475;SDS011;37554;50.362;7.568;2023-12-20T02:23:56;0.80;;;0.20;;
51475;SDS011;37554;50.362;7.568;2023-12-20T02:26:22;0.50;;;0.20;;
51475;SDS011;37554;50.362;7.568;2023-12-20T02:28:47;0.20;;;0.10;;
51475;SDS011;37554;50.362;7.568;2023-12-20T02:31:13;0.22;;;0.20;;
51475;SDS011;37554;50.362;7.568;2023-12-20T02:33:39;0.13;;;0.13;;
51475;SDS011;37554;50.362;7.568;2023-12-20T02:36:04;1.08;;;0.10;;
51475;SDS011;37554;50.362;7.568;2023-12-20T02:38:31;0.10;;;0.10;;
51475;SDS011;37554;50.362;7.568;2023-12-20T02:40:57;0.38;;;0.20;;
51475;SDS011;37554;50.362;7.568;2023-12-20T02:43:23;0.98;;;0.20;;
51475;SDS011;37554;50.362;7.568;2023-12-20T02:45:48;0.20;;;0.20;;
51475;SDS011;37554;50.362;7.568;2023-12-20T02:48:14;0.82;;;0.30;;
51475;SDS011;37554;50.362;7.568;2023-12-20T02:50:39;0.10;;;0.10;;
51475;SDS011;37554;50.362;7.568;2023-12-20T02:53:05;0.22;;;0.10;;
51475;SDS011;37554;50.362;7.568;2023-12-20T02:55:30;0.30;;;0.20;;
51475;SDS011;37554;50.362;7.568;2023-12-20T02:57:56;0.10;;;0.10;;
51475;SDS011;37554;50.362;7.568;2023-12-20T03:00:22;0.20;;;0.17;;
51475;SDS011;37554;50.362;7.568;2023-12-20T03:02:47;0.30;;;0.10;;
51475;SDS011;37554;50.362;7.568;2023-12-20T03:05:13;0.10;;;0.10;;
51475;SDS011;37554;50.362;7.568;2023-12-20T03:07:38;0.20;;;0.20;;
51475;SDS011;37554;50.362;7.568;2023-12-20T03:10:04;0.25;;;0.20;;
51475;SDS011;37554;50.362;7.568;2023-12-20T03:12:32;0.20;;;0.20;;
51475;SDS011;37554;50.362;7.568;2023-12-20T03:14:58;0.20;;;0.10;;
51475;SDS011;37554;50.362;7.568;2023-12-20T03:17:23;0.20;;;0.20;;
51475;SDS011;37554;50.362;7.568;2023-12-20T03:19:49;0.55;;;0.20;;
51475;SDS011;37554;50.362;7.568;2023-12-20T03:22:14;0.10;;;0.10;;
51475;SDS011;37554;50.362;7.568;2023-12-20T03:24:40;0.47;;;0.30;;
51475;SDS011;37554;50.362;7.568;2023-12-20T03:27:06;0.43;;;0.17;;
51475;SDS011;37554;50.362;7.568;2023-12-20T03:29:31;0.25;;;0.25;;
51475;SDS011;37554;50.362;7.568;2023-12-20T03:31:57;0.50;;;0.30;;
51475;SDS011;37554;50.362;7.568;2023-12-20T03:34:22;0.57;;;0.20;;
51475;SDS011;37554;50.362;7.568;2023-12-20T03:36:48;0.77;;;0.22;;
51475;SDS011;37554;50.362;7.568;2023-12-20T03:39:13;0.63;;;0.20;;
51475;SDS011;37554;50.362;7.568;2023-12-20T03:41:39;1.33;;;0.40;;
51475;SDS011;37554;50.362;7.568;2023-12-20T03:44:04;1.05;;;0.30;;
51475;SDS011;37554;50.362;7.568;2023-12-20T03:46:30;0.68;;;0.38;;
51475;SDS011;37554;50.362;7.568;2023-12-20T03:48:56;0.95;;;0.30;;
51475;SDS011;37554;50.362;7.568;2023-12-20T03:51:22;1.63;;;0.30;;
51475;SDS011;37554;50.362;7.568;2023-12-20T03:53:47;1.60;;;0.32;;
51475;SDS011;37554;50.362;7.568;2023-12-20T03:56:13;1.00;;;0.40;;
51475;SDS011;37554;50.362;7.568;2023-12-20T03:58:38;0.65;;;0.30;;
51475;SDS011;37554;50.362;7.568;2023-12-20T04:01:08;1.05;;;0.30;;
51475;SDS011;37554;50.362;7.568;2023-12-20T04:03:37;1.33;;;0.30;;
51475;SDS011;37554;50.362;7.568;2023-12-20T04:06:03;1.42;;;0.50;;
51475;SDS011;37554;50.362;7.568;2023-12-20T04:08:32;2.22;;;0.50;;
51475;SDS011;37554;50.362;7.568;2023-12-20T04:10:58;1.42;;;0.40;;
51475;SDS011;37554;50.362;7.568;2023-12-20T04:13:23;2.70;;;0.63;;
51475;SDS011;37554;50.362;7.568;2023-12-20T04:15:49;2.13;;;0.38;;
51475;SDS011;37554;50.362;7.568;2023-12-20T04:18:16;1.27;;;0.45;;
51475;SDS011;37554;50.362;7.568;2023-12-20T04:20:41;1.00;;;0.40;;
51475;SDS011;37554;50.362;7.568;2023-12-20T04:23:07;3.28;;;0.55;;
51475;SDS011;37554;50.362;7.568;2023-12-20T04:25:32;1.90;;;0.45;;
51475;SDS011;37554;50.362;7.568;2023-12-20T04:27:58;1.42;;;0.40;;
51475;SDS011;37554;50.362;7.568;2023-12-20T04:30:23;1.20;;;0.40;;
51475;SDS011;37554;50.362;7.568;2023-12-20T04:32:49;1.80;;;0.52;;
51475;SDS011;37554;50.362;7.568;2023-12-20T04:35:15;1.63;;;0.30;;
51475;SDS011;37554;50.362;7.568;2023-12-20T04:37:40;1.65;;;0.50;;
51475;SDS011;37554;50.362;7.568;2023-12-20T04:40:06;1.35;;;0.70;;
51475;SDS011;37554;50.362;7.568;2023-12-20T04:42:33;1.10;;;0.30;;
51475;SDS011;37554;50.362;7.568;2023-12-20T04:44:58;2.03;;;0.50;;
51475;SDS011;37554;50.362;7.568;2023-12-20T04:47:24;0.90;;;0.32;;
51475;SDS011;37554;50.362;7.568;2023-12-20T04:49:50;1.98;;;0.65;;
51475;SDS011;37554;50.362;7.568;2023-12-20T04:52:15;1.20;;;0.43;;
51475;SDS011;37554;50.362;7.568;2023-12-20T04:54:41;2.92;;;0.60;;
51475;SDS011;37554;50.362;7.568;2023-12-20T04:57:06;1.45;;;0.40;;
51475;SDS011;37554;50.362;7.568;2023-12-20T04:59:32;1.85;;;0.55;;
51475;SDS011;37554;50.362;7.568;2023-12-20T05:01:57;2.10;;;0.82;;
51475;SDS011;37554;50.362;7.568;2023-12-20T05:04:23;3.05;;;0.73;;
51475;SDS011;37554;50.362;7.568;2023-12-20T05:06:49;1.80;;;0.50;;
51475;SDS011;37554;50.362;7.568;2023-12-20T05:09:15;4.60;;;0.60;;
51475;SDS011;37554;50.362;7.568;2023-12-20T05:11:41;2.60;;;0.70;;
51475;SDS011;37554;50.362;7.568;2023-12-20T05:14:06;1.73;;;0.40;;
51475;SDS011;37554;50.362;7.568;2023-12-20T05:16:32;1.75;;;0.63;;
51475;SDS011;37554;50.362;7.568;2023-12-20T05:18:58;1.88;;;0.45;;
51475;SDS011;37554;50.362;7.568;2023-12-20T05:21:25;2.45;;;0.50;;
51475;SDS011;37554;50.362;7.568;2023-12-20T05:23:51;1.23;;;0.40;;
51475;SDS011;37554;50.362;7.568;2023-12-20T05:26:17;2.30;;;0.50;;
51475;SDS011;37554;50.362;7.568;2023-12-20T05:28:42;3.22;;;0.60;;
51475;SDS011;37554;50.362;7.568;2023-12-20T05:31:08;1.95;;;0.60;;
51475;SDS011;37554;50.362;7.568;2023-12-20T05:33:34;2.88;;;0.50;;
51475;SDS011;37554;50.362;7.568;2023-12-20T05:35:59;2.75;;;0.75;;
51475;SDS011;37554;50.362;7.568;2023-12-20T05:38:25;1.60;;;0.50;;
51475;SDS011;37554;50.362;7.568;2023-12-20T05:40:51;1.98;;;0.60;;
51475;SDS011;37554;50.362;7.568;2023-12-20T05:43:16;1.02;;;0.50;;
51475;SDS011;37554;50.362;7.568;2023-12-20T05:45:42;2.53;;;0.82;;
51475;SDS011;37554;50.362;7.568;2023-12-20T05:48:07;2.97;;;0.65;;
51475;SDS011;37554;50.362;7.568;2023-12-20T05:50:33;1.95;;;0.52;;
51475;SDS011;37554;50.362;7.568;2023-12-20T05:52:59;2.00;;;0.35;;
51475;SDS011;37554;50.362;7.568;2023-12-20T05:55:25;2.50;;;0.70;;
51475;SDS011;37554;50.362;7.568;2023-12-20T05:57:51;2.47;;;0.70;;
51475;SDS011;37554;50.362;7.568;2023-12-20T06:00:16;2.25;;;0.55;;
51475;SDS011;37554;50.362;7.568;2023-12-20T06:02:42;3.95;;;0.55;;
51475;SDS011;37554;50.362;7.568;2023-12-20T06:05:08;2.03;;;0.55;;
51475;SDS011;37554;50.362;7.568;2023-12-20T06:07:34;1.75;;;0.65;;
51475;SDS011;37554;50.362;7.568;2023-12-20T06:09:59;4.03;;;0.70;;
51475;SDS011;37554;50.362;7.568;2023-12-20T06:12:25;3.72;;;0.70;;
51475;SDS011;37554;50.362;7.568;2023-12-20T06:14:52;2.53;;;0.52;;
51475;SDS011;37554;50.362;7.568;2023-12-20T06:17:18;1.67;;;0.50;;
51475;SDS011;37554;50.362;7.568;2023-12-20T06:19:43;5.25;;;1.00;;
51475;SDS011;37554;50.362;7.568;2023-12-20T06:22:13;2.58;;;0.68;;
51475;SDS011;37554;50.362;7.568;2023-12-20T06:24:39;2.90;;;0.63;;
51475;SDS011;37554;50.362;7.568;2023-12-20T06:27:04;2.50;;;0.63;;
51475;SDS011;37554;50.362;7.568;2023-12-20T06:29:30;2.22;;;0.52;;
51475;SDS011;37554;50.362;7.568;2023-12-20T06:31:56;2.05;;;0.55;;
51475;SDS011;37554;50.362;7.568;2023-12-20T06:34:21;2.35;;;0.80;;
51475;SDS011;37554;50.362;7.568;2023-12-20T06:36:47;2.75;;;0.60;;
51475;SDS011;37554;50.362;7.568;2023-12-20T06:39:12;1.70;;;0.60;;
51475;SDS011;37554;50.362;7.568;2023-12-20T06:41:39;1.80;;;0.40;;
51475;SDS011;37554;50.362;7.568;2023-12-20T06:44:04;2.47;;;0.60;;
51475;SDS011;37554;50.362;7.568;2023-12-20T06:46:30;1.80;;;0.65;;
51475;SDS011;37554;50.362;7.568;2023-12-20T06:48:56;3.05;;;0.80;;
51475;SDS011;37554;50.362;7.568;2023-12-20T06:51:21;4.25;;;0.90;;
51475;SDS011;37554;50.362;7.568;2023-12-20T06:53:50;8.13;;;0.70;;
51475;SDS011;37554;50.362;7.568;2023-12-20T06:56:16;2.92;;;0.70;;
51475;SDS011;37554;50.362;7.568;2023-12-20T06:58:42;3.22;;;0.80;;
51475;SDS011;37554;50.362;7.568;2023-12-20T07:01:11;3.38;;;0.63;;
51475;SDS011;37554;50.362;7.568;2023-12-20T07:03:37;2.08;;;0.63;;
51475;SDS011;37554;50.362;7.568;2023-12-20T07:06:03;2.80;;;0.50;;
51475;SDS011;37554;50.362;7.568;2023-12-20T07:08:29;3.05;;;0.82;;
51475;SDS011;37554;50.362;7.568;2023-12-20T07:10:55;2.28;;;0.63;;
51475;SDS011;37554;50.362;7.568;2023-12-20T07:13:20;3.22;;;0.57;;
51475;SDS011;37554;50.362;7.568;2023-12-20T07:15:47;2.42;;;0.57;;
51475;SDS011;37554;50.362;7.568;2023-12-20T07:18:13;2.78;;;0.70;;
51475;SDS011;37554;50.362;7.568;2023-12-20T07:20:39;4.30;;;0.70;;
51475;SDS011;37554;50.362;7.568;2023-12-20T07:23:04;2.92;;;0.80;;
51475;SDS011;37554;50.362;7.568;2023-12-20T07:25:30;2.30;;;0.60;;
51475;SDS011;37554;50.362;7.568;2023-12-20T07:27:57;3.05;;;0.77;;
51475;SDS011;37554;50.362;7.568;2023-12-20T07:30:23;1.35;;;0.43;;
51475;SDS011;37554;50.362;7.568;2023-12-20T07:32:49;2.72;;;0.90;;
51475;SDS011;37554;50.362;7.568;2023-12-20T07:35:15;2.63;;;0.70;;
51475;SDS011;37554;50.362;7.568;2023-12-20T07:37:41;1.80;;;0.70;;
51475;SDS011;37554;50.362;7.568;2023-12-20T07:40:07;2.25;;;0.60;;
51475;SDS011;37554;50.362;7.568;2023-12-20T07:42:33;3.22;;;0.77;;
51475;SDS011;37554;50.362;7.568;2023-12-20T07:44:58;2.58;;;0.70;;
51475;SDS011;37554;50.362;7.568;2023-12-20T07:47:24;3.35;;;1.08;;
51475;SDS011;37554;50.362;7.568;2023-12-20T07:49:50;3.90;;;0.70;;
51475;SDS011;37554;50.362;7.568;2023-12-20T07:52:17;4.53;;;0.95;;
51475;SDS011;37554;50.362;7.568;2023-12-20T07:54:43;5.72;;;2.15;;
51475;SDS011;37554;50.362;7.568;2023-12-20T07:57:10;11.50;;;3.95;;
51475;SDS011;37554;50.362;7.568;2023-12-20T07:59:36;13.32;;;4.22;;
51475;SDS011;37554;50.362;7.568;2023-12-20T08:02:01;11.57;;;4.47;;
51475;SDS011;37554;50.362;7.568;2023-12-20T08:04:27;13.35;;;4.00;;
51475;SDS011;37554;50.362;7.568;2023-12-20T08:06:53;8.98;;;3.28;;
51475;SDS011;37554;50.362;7.568;2023-12-20T08:09:18;11.95;;;3.80;;
51475;SDS011;37554;50.362;7.568;2023-12-20T08:11:47;9.45;;;3.80;;
51475;SDS011;37554;50.362;7.568;2023-12-20T08:14:14;13.80;;;3.30;;
51475;SDS011;37554;50.362;7.568;2023-12-20T08:16:40;10.75;;;3.30;;
51475;SDS011;37554;50.362;7.568;2023-12-20T08:19:05;8.88;;;3.63;;
51475;SDS011;37554;50.362;7.568;2023-12-20T08:21:31;9.13;;;2.92;;
51475;SDS011;37554;50.362;7.568;2023-12-20T08:23:56;8.43;;;2.80;;
51475;SDS011;37554;50.362;7.568;2023-12-20T08:26:22;5.82;;;2.65;;
51475;SDS011;37554;50.362;7.568;2023-12-20T08:28:49;6.40;;;2.40;;
51475;SDS011;37554;50.362;7.568;2023-12-20T08:31:16;5.45;;;2.55;;
51475;SDS011;37554;50.362;7.568;2023-12-20T08:33:43;6.50;;;2.33;;
51475;SDS011;37554;50.362;7.568;2023-12-20T08:36:13;5.30;;;2.20;;
51475;SDS011;37554;50.362;7.568;2023-12-20T08:38:38;4.47;;;1.75;;
51475;SDS011;37554;50.362;7.568;2023-12-20T08:41:04;4.53;;;1.90;;
51475;SDS011;37554;50.362;7.568;2023-12-20T08:43:33;5.97;;;1.73;;
51475;SDS011;37554;50.362;7.568;2023-12-20T08:45:59;3.65;;;1.52;;
51475;SDS011;37554;50.362;7.568;2023-12-20T08:48:25;6.60;;;2.25;;
51475;SDS011;37554;50.362;7.568;2023-12-20T08:50:51;3.72;;;1.55;;
51475;SDS011;37554;50.362;7.568;2023-12-20T08:53:17;5.05;;;1.60;;
51475;SDS011;37554;50.362;7.568;2023-12-20T08:55:44;4.70;;;1.73;;
51475;SDS011;37554;50.362;7.568;2023-12-20T08:58:10;6.07;;;1.42;;
51475;SDS011;37554;50.362;7.568;2023-12-20T09:00:35;4.95;;;1.73;;
51475;SDS011;37554;50.362;7.568;2023-12-20T09:03:01;4.72;;;1.52;;
51475;SDS011;37554;50.362;7.568;2023-12-20T09:05:27;4.28;;;1.58;;
51475;SDS011;37554;50.362;7.568;2023-12-20T09:07:53;4.53;;;1.90;;
51475;SDS011;37554;50.362;7.568;2023-12-20T09:10:20;3.75;;;1.35;;
51475;SDS011;37554;50.362;7.568;2023-12-20T09:12:53;3.28;;;1.25;;
51475;SDS011;37554;50.362;7.568;2023-12-20T09:15:21;3.53;;;1.48;;
51475;SDS011;37554;50.362;7.568;2023-12-20T09:17:50;3.63;;;1.27;;
51475;SDS011;37554;50.362;7.568;2023-12-20T09:20:16;5.85;;;1.55;;
51475;SDS011;37554;50.362;7.568;2023-12-20T09:22:41;5.13;;;1.50;;
51475;SDS011;37554;50.362;7.568;2023-12-20T09:25:07;3.55;;;1.48;;
51475;SDS011;37554;50.362;7.568;2023-12-20T09:27:35;4.43;;;1.48;;
51475;SDS011;37554;50.362;7.568;2023-12-20T09:30:00;5.25;;;1.10;;
51475;SDS011;37554;50.362;7.568;2023-12-20T09:32:26;3.95;;;1.10;;
51475;SDS011;37554;50.362;7.568;2023-12-20T09:34:51;4.47;;;1.60;;
51475;SDS011;37554;50.362;7.568;2023-12-20T09:37:17;2.72;;;1.40;;
51475;SDS011;37554;50.362;7.568;2023-12-20T09:39:43;3.25;;;1.40;;
51475;SDS011;37554;50.362;7.568;2023-12-20T09:42:08;2.75;;;1.08;;
51475;SDS011;37554;50.362;7.568;2023-12-20T09:44:37;3.85;;;1.42;;
51475;SDS011;37554;50.362;7.568;2023-12-20T09:47:05;3.30;;;0.93;;
51475;SDS011;37554;50.362;7.568;2023-12-20T09:49:32;5.38;;;1.30;;
51475;SDS011;37554;50.362;7.568;2023-12-20T09:51:58;6.60;;;1.73;;
51475;SDS011;37554;50.362;7.568;2023-12-20T09:54:25;3.53;;;1.42;;
51475;SDS011;37554;50.362;7.568;2023-12-20T09:56:53;2.38;;;0.93;;
51475;SDS011;37554;50.362;7.568;2023-12-20T09:59:19;3.22;;;1.38;;
51475;SDS011;37554;50.362;7.568;2023-12-20T10:01:44;5.22;;;1.45;;
51475;SDS011;37554;50.362;7.568;2023-12-20T10:04:10;3.25;;;0.98;;
51475;SDS011;37554;50.362;7.568;2023-12-20T10:06:41;4.03;;;1.23;;
51475;SDS011;37554;50.362;7.568;2023-12-20T10:09:08;3.08;;;1.20;;
51475;SDS011;37554;50.362;7.568;2023-12-20T10:11:39;3.50;;;1.08;;
51475;SDS011;37554;50.362;7.568;2023-12-20T10:14:05;4.45;;;1.17;;
51475;SDS011;37554;50.362;7.568;2023-12-20T10:16:32;4.18;;;1.23;;
51475;SDS011;37554;50.362;7.568;2023-12-20T10:18:58;5.00;;;1.20;;
51475;SDS011;37554;50.362;7.568;2023-12-20T10:21:25;3.78;;;1.05;;
51475;SDS011;37554;50.362;7.568;2023-12-20T10:23:54;3.17;;;0.93;;
51475;SDS011;37554;50.362;7.568;2023-12-20T10:26:26;3.72;;;1.30;;
51475;SDS011;37554;50.362;7.568;2023-12-20T10:28:53;4.75;;;1.52;;
51475;SDS011;37554;50.362;7.568;2023-12-20T10:31:32;4.40;;;1.30;;
51475;SDS011;37554;50.362;7.568;2023-12-20T10:33:59;3.05;;;1.10;;
51475;SDS011;37554;50.362;7.568;2023-12-20T10:36:26;4.57;;;1.40;;
51475;SDS011;37554;50.362;7.568;2023-12-20T10:38:53;4.47;;;1.23;;
51475;SDS011;37554;50.362;7.568;2023-12-20T10:41:30;4.43;;;1.60;;
51475;SDS011;37554;50.362;7.568;2023-12-20T10:43:58;4.85;;;1.02;;
51475;SDS011;37554;50.362;7.568;2023-12-20T10:46:26;3.03;;;1.30;;
51475;SDS011;37554;50.362;7.568;2023-12-20T10:48:53;3.53;;;1.20;;
51475;SDS011;37554;50.362;7.568;2023-12-20T10:51:20;3.85;;;1.55;;
51475;SDS011;37554;50.362;7.568;2023-12-20T10:53:49;2.88;;;1.20;;
51475;SDS011;37554;50.362;7.568;2023-12-20T10:56:18;4.03;;;1.52;;
51475;SDS011;37554;50.362;7.568;2023-12-20T10:58:45;4.78;;;1.35;;
51475;SDS011;37554;50.362;7.568;2023-12-20T11:01:14;4.63;;;1.15;;
51475;SDS011;37554;50.362;7.568;2023-12-20T11:03:53;3.10;;;1.00;;
51475;SDS011;37554;50.362;7.568;2023-12-20T11:14:40;4.90;;;1.35;;
51475;SDS011;37554;50.362;7.568;2023-12-20T11:17:10;2.92;;;1.05;;
51475;SDS011;37554;50.362;7.568;2023-12-20T11:22:22;2.55;;;1.25;;
51475;SDS011;37554;50.362;7.568;2023-12-20T11:24:50;4.82;;;1.80;;
51475;SDS011;37554;50.362;7.568;2023-12-20T11:27:18;3.40;;;1.50;;
51475;SDS011;37554;50.362;7.568;2023-12-20T11:29:51;5.00;;;1.40;;
51475;SDS011;37554;50.362;7.568;2023-12-20T11:34:54;4.03;;;1.33;;
51475;SDS011;37554;50.362;7.568;2023-12-20T11:37:35;3.22;;;1.30;;
51475;SDS011;37554;50.362;7.568;2023-12-20T11:40:02;6.28;;;1.70;;
51475;SDS011;37554;50.362;7.568;2023-12-20T11:42:40;3.70;;;1.60;;
51475;SDS011;37554;50.362;7.568;2023-12-20T11:45:10;4.95;;;1.40;;
51475;SDS011;37554;50.362;7.568;2023-12-20T11:47:40;7.05;;;2.17;;
51475;SDS011;37554;50.362;7.568;2023-12-20T11:50:11;5.00;;;1.92;;
51475;SDS011;37554;50.362;7.568;2023-12-20T11:52:36;5.47;;;1.95;;
51475;SDS011;37554;50.362;7.568;2023-12-20T11:55:02;5.38;;;1.92;;
51475;SDS011;37554;50.362;7.568;2023-12-20T11:57:29;4.18;;;1.90;;
51475;SDS011;37554;50.362;7.568;2023-12-20T11:59:55;6.35;;;2.10;;
51475;SDS011;37554;50.362;7.568;2023-12-20T12:02:21;4.95;;;1.65;;
51475;SDS011;37554;50.362;7.568;2023-12-20T12:04:48;6.60;;;2.13;;
51475;SDS011;37554;50.362;7.568;2023-12-20T12:07:15;5.13;;;1.98;;
51475;SDS011;37554;50.362;7.568;2023-12-20T12:09:41;5.88;;;1.88;;
51475;SDS011;37554;50.362;7.568;2023-12-20T12:12:07;4.60;;;2.10;;
51475;SDS011;37554;50.362;7.568;2023-12-20T12:14:33;6.40;;;2.55;;
51475;SDS011;37554;50.362;7.568;2023-12-20T12:17:01;5.70;;;2.45;;
51475;SDS011;37554;50.362;7.568;2023-12-20T12:19:28;3.92;;;1.70;;
51475;SDS011;37554;50.362;7.568;2023-12-20T12:24:42;5.40;;;2.38;;
51475;SDS011;37554;50.362;7.568;2023-12-20T12:27:09;5.47;;;2.10;;
51475;SDS011;37554;50.362;7.568;2023-12-20T12:29:35;6.25;;;2.05;;
51475;SDS011;37554;50.362;7.568;2023-12-20T12:32:05;5.28;;;2.72;;
51475;SDS011;37554;50.362;7.568;2023-12-20T12:34:32;7.00;;;2.30;;
51475;SDS011;37554;50.362;7.568;2023-12-20T12:37:01;3.72;;;2.30;;
51475;SDS011;37554;50.362;7.568;2023-12-20T12:39:29;6.95;;;2.80;;
51475;SDS011;37554;50.362;7.568;2023-12-20T12:41:55;9.60;;;4.70;;
51475;SDS011;37554;50.362;7.568;2023-12-20T12:44:22;7.85;;;3.55;;
51475;SDS011;37554;50.362;7.568;2023-12-20T12:46:49;8.13;;;3.25;;
51475;SDS011;37554;50.362;7.568;2023-12-20T12:49:16;7.45;;;3.55;;
51475;SDS011;37554;50.362;7.568;2023-12-20T12:51:42;7.53;;;3.08;;
51475;SDS011;37554;50.362;7.568;2023-12-20T12:54:08;6.45;;;2.78;;
51475;SDS011;37554;50.362;7.568;2023-12-20T12:56:35;6.47;;;2.83;;
51475;SDS011;37554;50.362;7.568;2023-12-20T12:59:01;7.45;;;3.00;;
51475;SDS011;37554;50.362;7.568;2023-12-20T13:01:27;6.20;;;3.15;;
51475;SDS011;37554;50.362;7.568;2023-12-20T13:03:52;7.22;;;2.85;;
51475;SDS011;37554;50.362;7.568;2023-12-20T13:06:19;7.47;;;2.47;;
51475;SDS011;37554;50.362;7.568;2023-12-20T13:08:45;6.10;;;2.53;;
51475;SDS011;37554;50.362;7.568;2023-12-20T13:11:10;5.93;;;2.30;;
51475;SDS011;37554;50.362;7.568;2023-12-20T13:13:36;4.75;;;2.70;;
51475;SDS011;37554;50.362;7.568;2023-12-20T13:16:01;5.90;;;2.63;;
51475;SDS011;37554;50.362;7.568;2023-12-20T13:18:27;5.10;;;2.10;;
51475;SDS011;37554;50.362;7.568;2023-12-20T13:20:53;6.10;;;2.20;;
51475;SDS011;37554;50.362;7.568;2023-12-20T13:23:19;5.85;;;2.33;;
51475;SDS011;37554;50.362;7.568;2023-12-20T13:25:44;6.05;;;2.25;;
51475;SDS011;37554;50.362;7.568;2023-12-20T13:28:13;4.47;;;2.40;;
51475;SDS011;37554;50.362;7.568;2023-12-20T13:30:39;6.22;;;2.35;;
51475;SDS011;37554;50.362;7.568;2023-12-20T13:33:05;4.88;;;1.90;;
51475;SDS011;37554;50.362;7.568;2023-12-20T13:35:31;7.80;;;2.40;;
51475;SDS011;37554;50.362;7.568;2023-12-20T13:37:58;4.68;;;1.92;;
51475;SDS011;37554;50.362;7.568;2023-12-20T13:40:24;4.35;;;1.80;;
51475;SDS011;37554;50.362;7.568;2023-12-20T13:42:50;6.25;;;2.20;;
51475;SDS011;37554;50.362;7.568;2023-12-20T13:45:16;3.15;;;1.50;;
51475;SDS011;37554;50.362;7.568;2023-12-20T13:47:41;4.95;;;2.00;;
51475;SDS011;37554;50.362;7.568;2023-12-20T13:50:07;4.70;;;1.80;;
51475;SDS011;37554;50.362;7.568;2023-12-20T13:52:33;5.95;;;1.95;;
51475;SDS011;37554;50.362;7.568;2023-12-20T13:54:58;5.07;;;1.80;;
51475;SDS011;37554;50.362;7.568;2023-12-20T13:57:24;5.15;;;2.17;;
51475;SDS011;37554;50.362;7.568;2023-12-20T13:59:49;5.68;;;1.77;;
51475;SDS011;37554;50.362;7.568;2023-12-20T14:02:15;5.90;;;1.73;;
51475;SDS011;37554;50.362;7.568;2023-12-20T14:04:43;6.20;;;1.67;;
51475;SDS011;37554;50.362;7.568;2023-12-20T14:07:09;5.60;;;2.58;;
51475;SDS011;37554;50.362;7.568;2023-12-20T14:09:35;5.60;;;1.48;;
51475;SDS011;37554;50.362;7.568;2023-12-20T14:12:01;3.35;;;1.42;;
51475;SDS011;37554;50.362;7.568;2023-12-20T14:14:27;3.10;;;1.60;;
51475;SDS011;37554;50.362;7.568;2023-12-20T14:16:52;2.70;;;1.67;;
51475;SDS011;37554;50.362;7.568;2023-12-20T14:19:18;6.65;;;2.03;;
51475;SDS011;37554;50.362;7.568;2023-12-20T14:21:44;4.82;;;1.67;;
51475;SDS011;37554;50.362;7.568;2023-12-20T14:24:11;5.07;;;1.67;;
51475;SDS011;37554;50.362;7.568;2023-12-20T14:26:39;3.45;;;1.40;;
51475;SDS011;37554;50.362;7.568;2023-12-20T14:29:05;2.90;;;1.30;;
51475;SDS011;37554;50.362;7.568;2023-12-20T14:31:32;5.68;;;1.70;;
51475;SDS011;37554;50.362;7.568;2023-12-20T14:33:58;3.38;;;1.60;;
51475;SDS011;37554;50.362;7.568;2023-12-20T14:36:24;5.10;;;1.50;;
51475;SDS011;37554;50.362;7.568;2023-12-20T14:38:50;3.08;;;1.33;;
51475;SDS011;37554;50.362;7.568;2023-12-20T14:41:16;3.58;;;1.23;;
51475;SDS011;37554;50.362;7.568;2023-12-20T14:43:43;5.15;;;1.70;;
51475;SDS011;37554;50.362;7.568;2023-12-20T14:46:09;4.47;;;1.38;;
51475;SDS011;37554;50.362;7.568;2023-12-20T14:48:35;3.53;;;1.10;;
51475;SDS011;37554;50.362;7.568;2023-12-20T14:51:00;4.18;;;1.35;;
51475;SDS011;37554;50.362;7.568;2023-12-20T14:53:26;3.60;;;1.35;;
51475;SDS011;37554;50.362;7.568;2023-12-20T14:55:52;4.03;;;1.30;;
51475;SDS011;37554;50.362;7.568;2023-12-20T14:58:17;4.00;;;1.38;;
51475;SDS011;37554;50.362;7.568;2023-12-20T15:00:43;4.78;;;1.50;;